Time;durP1;ratioP1;P1;durP2;ratioP2;P2;SDS_P1;SDS_P2;PMS_P1;PMS_P2;Temp;Humidity;BMP_temperature;BMP_pressure;BME280_temperature;BME280_humidity;BME280_pressure;Samples;Min_cycle;Max_cycle;Signal;HPM_P1;HPM_P2
2022/07/27 00:00:39;;;;;;;6.67;3.00;;;;;;;;;;5265650;28;20390;-82
2022/07/27 00:03:10;;;;;;;6.07;2.27;;;;;;;;;;5286105;28;20063;-83
2022/07/27 00:05:41;;;;;;;5.50;2.40;;;;;;;;;;5255367;28;20291;-82
2022/07/27 00:08:13;;;;;;;8.80;2.67;;;;;;;;;;5280051;28;20302;-83
2022/07/27 00:10:44;;;;;;;5.28;3.53;;;;;;;;;;5301058;28;20032;-83
2022/07/27 00:13:15;;;;;;;6.47;2.60;;;;;;;;;;5283524;28;20111;-83
2022/07/27 00:15:46;;;;;;;5.18;3.22;;;;;;;;;;5263639;28;20271;-83
2022/07/27 00:18:18;;;;;;;7.85;3.85;;;;;;;;;;5272608;28;20104;-83
2022/07/27 00:20:49;;;;;;;5.43;3.40;;;;;;;;;;5276217;28;20045;-83
2022/07/27 00:23:26;;;;;;;6.80;2.88;;;;;;;;;;5281451;28;20285;-83
2022/07/27 00:25:58;;;;;;;3.67;2.72;;;;;;;;;;5264028;28;20017;-83
2022/07/27 00:28:29;;;;;;;5.25;2.67;;;;;;;;;;5282260;28;20025;-82
2022/07/27 00:31:00;;;;;;;7.83;2.93;;;;;;;;;;5281247;28;20022;-83
2022/07/27 00:33:32;;;;;;;4.68;3.25;;;;;;;;;;5269268;28;20239;-83
2022/07/27 00:36:03;;;;;;;6.43;3.67;;;;;;;;;;5278068;28;20057;-83
2022/07/27 00:38:34;;;;;;;6.25;2.72;;;;;;;;;;5277565;28;20763;-83
2022/07/27 00:41:06;;;;;;;7.83;3.00;;;;;;;;;;5281186;28;20021;-83
2022/07/27 00:43:53;;;;;;;4.63;3.25;;;;;;;;;;5277277;28;20251;-82
2022/07/27 00:46:25;;;;;;;9.85;3.25;;;;;;;;;;5260984;28;20051;-83
2022/07/27 00:48:57;;;;;;;6.72;3.88;;;;;;;;;;5287554;28;20079;-83
2022/07/27 00:51:29;;;;;;;5.32;3.72;;;;;;;;;;5284841;28;20927;-82
2022/07/27 00:54:00;;;;;;;5.90;3.85;;;;;;;;;;5254877;28;20028;-83
2022/07/27 00:56:31;;;;;;;5.20;4.28;;;;;;;;;;5286500;28;20033;-82
2022/07/27 00:59:04;;;;;;;7.43;3.80;;;;;;;;;;5280768;28;20025;-82
2022/07/27 01:01:36;;;;;;;9.05;4.20;;;;;;;;;;5264432;28;20065;-82
2022/07/27 01:04:07;;;;;;;7.22;3.88;;;;;;;;;;5281398;28;20063;-82
2022/07/27 01:06:38;;;;;;;10.52;3.85;;;;;;;;;;5276041;28;20485;-83
2022/07/27 01:12:13;;;;;;;6.50;4.45;;;;;;;;;;5274960;28;20493;-83
2022/07/27 01:14:45;;;;;;;10.50;4.65;;;;;;;;;;5286542;28;20046;-82
2022/07/27 01:17:16;;;;;;;11.35;4.30;;;;;;;;;;5281290;28;20017;-83
2022/07/27 01:19:48;;;;;;;9.32;3.92;;;;;;;;;;5282286;28;20093;-82
2022/07/27 01:22:19;;;;;;;10.38;4.00;;;;;;;;;;5284761;28;20045;-83
2022/07/27 01:24:50;;;;;;;8.73;4.00;;;;;;;;;;5280109;28;20032;-83
2022/07/27 01:27:21;;;;;;;7.20;3.47;;;;;;;;;;5279519;28;20024;-83
2022/07/27 01:29:52;;;;;;;7.20;4.27;;;;;;;;;;5282164;28;20045;-83
2022/07/27 01:32:23;;;;;;;9.95;3.58;;;;;;;;;;5281389;28;20283;-83
2022/07/27 01:34:55;;;;;;;5.60;3.70;;;;;;;;;;5263843;28;20087;-83
2022/07/27 01:37:26;;;;;;;6.20;3.80;;;;;;;;;;5261451;28;20268;-82
2022/07/27 01:39:57;;;;;;;10.23;3.80;;;;;;;;;;5265159;28;20277;-82
2022/07/27 01:42:28;;;;;;;5.23;4.13;;;;;;;;;;5282842;28;20054;-82
2022/07/27 01:44:59;;;;;;;9.23;4.83;;;;;;;;;;5265402;28;20025;-82
2022/07/27 01:47:30;;;;;;;6.93;5.30;;;;;;;;;;5261752;28;20406;-82
2022/07/27 01:50:02;;;;;;;8.87;4.87;;;;;;;;;;5279725;28;20025;-82
2022/07/27 01:52:33;;;;;;;10.63;4.78;;;;;;;;;;5281466;28;20314;-83
2022/07/27 01:55:09;;;;;;;10.50;5.75;;;;;;;;;;5261799;28;20868;-82
2022/07/27 01:57:40;;;;;;;8.30;4.13;;;;;;;;;;5280319;28;20040;-82
2022/07/27 02:00:12;;;;;;;8.47;4.20;;;;;;;;;;5283209;28;20477;-82
2022/07/27 02:02:43;;;;;;;7.63;4.72;;;;;;;;;;5280338;28;20284;-82
2022/07/27 02:05:14;;;;;;;7.50;4.53;;;;;;;;;;5285933;28;20055;-83
2022/07/27 02:07:46;;;;;;;10.00;4.67;;;;;;;;;;5280545;28;20477;-83
2022/07/27 02:10:17;;;;;;;10.40;4.60;;;;;;;;;;5268470;28;20400;-82
2022/07/27 02:12:49;;;;;;;8.07;4.78;;;;;;;;;;5285974;28;20078;-83
2022/07/27 02:15:21;;;;;;;9.52;4.75;;;;;;;;;;5277360;28;20170;-82
2022/07/27 02:17:53;;;;;;;8.07;4.72;;;;;;;;;;5287533;28;20036;-83
2022/07/27 02:20:25;;;;;;;7.25;5.18;;;;;;;;;;5285637;28;20057;-82
2022/07/27 02:22:56;;;;;;;7.82;5.03;;;;;;;;;;5284740;28;20029;-83
2022/07/27 02:25:27;;;;;;;12.38;5.45;;;;;;;;;;5279946;28;20037;-82
2022/07/27 02:27:58;;;;;;;9.48;5.13;;;;;;;;;;5279431;28;20064;-83
2022/07/27 02:30:30;;;;;;;9.70;4.90;;;;;;;;;;5271572;28;20131;-82
2022/07/27 02:33:01;;;;;;;7.45;5.13;;;;;;;;;;5283774;28;20040;-83
2022/07/27 02:35:36;;;;;;;9.20;5.80;;;;;;;;;;5279829;28;20405;-82
2022/07/27 02:38:07;;;;;;;12.90;6.32;;;;;;;;;;5279863;28;20028;-82
2022/07/27 02:40:38;;;;;;;9.60;5.10;;;;;;;;;;5276590;28;20033;-83
2022/07/27 02:43:09;;;;;;;8.13;4.75;;;;;;;;;;5286772;28;20055;-83
2022/07/27 02:45:40;;;;;;;9.75;4.85;;;;;;;;;;5286472;28;20025;-82
2022/07/27 02:48:12;;;;;;;9.17;4.47;;;;;;;;;;5283625;28;20155;-82
2022/07/27 02:50:43;;;;;;;13.52;5.35;;;;;;;;;;5286047;28;20033;-83
2022/07/27 02:53:14;;;;;;;12.18;5.50;;;;;;;;;;5285155;28;20033;-82
2022/07/27 02:55:45;;;;;;;7.13;4.90;;;;;;;;;;5283321;28;20059;-82
2022/07/27 02:58:16;;;;;;;10.37;5.63;;;;;;;;;;5265696;28;20093;-82
2022/07/27 03:00:48;;;;;;;8.65;5.35;;;;;;;;;;5284963;28;20317;-82
2022/07/27 03:03:19;;;;;;;8.38;5.38;;;;;;;;;;5266898;28;20385;-82
2022/07/27 03:05:50;;;;;;;7.93;5.10;;;;;;;;;;5286206;28;20140;-82
2022/07/27 03:08:22;;;;;;;10.40;5.45;;;;;;;;;;5277521;28;20276;-82
2022/07/27 03:10:53;;;;;;;11.95;5.25;;;;;;;;;;5280454;28;20409;-82
2022/07/27 03:13:25;;;;;;;8.10;5.50;;;;;;;;;;5277547;28;20060;-82
2022/07/27 03:15:57;;;;;;;9.27;5.93;;;;;;;;;;5283731;28;20036;-82
2022/07/27 03:18:28;;;;;;;9.98;6.20;;;;;;;;;;5286009;28;20028;-82
2022/07/27 03:20:59;;;;;;;8.93;5.63;;;;;;;;;;5287485;28;20116;-82
2022/07/27 03:23:30;;;;;;;7.67;5.10;;;;;;;;;;5282233;28;20293;-82
2022/07/27 03:26:01;;;;;;;8.37;5.50;;;;;;;;;;5282002;28;20284;-82
2022/07/27 03:28:33;;;;;;;8.73;5.55;;;;;;;;;;5279961;28;20683;-84
2022/07/27 03:31:04;;;;;;;16.33;6.20;;;;;;;;;;5289147;28;20029;-84
2022/07/27 03:33:36;;;;;;;8.23;6.45;;;;;;;;;;5269268;28;20275;-83
2022/07/27 03:36:07;;;;;;;13.20;6.75;;;;;;;;;;5286935;28;20404;-83
2022/07/27 03:38:38;;;;;;;9.25;7.05;;;;;;;;;;5286903;28;20029;-84
2022/07/27 03:41:09;;;;;;;12.13;6.55;;;;;;;;;;5285933;28;20089;-84
2022/07/27 03:43:40;;;;;;;9.68;6.38;;;;;;;;;;5277902;28;20060;-83
2022/07/27 03:46:15;;;;;;;12.15;7.07;;;;;;;;;;5273149;28;20099;-83
2022/07/27 03:48:58;;;;;;;11.48;6.75;;;;;;;;;;5270635;28;20140;-84
2022/07/27 03:51:40;;;;;;;16.40;6.70;;;;;;;;;;5277395;28;20040;-85
2022/07/27 03:54:16;;;;;;;11.15;7.03;;;;;;;;;;5267250;28;20039;-85
2022/07/27 03:59:53;;;;;;;11.73;6.63;;;;;;;;;;5264310;28;20033;-84
2022/07/27 04:02:24;;;;;;;11.93;7.18;;;;;;;;;;5283224;28;20044;-83
2022/07/27 04:04:55;;;;;;;11.55;8.25;;;;;;;;;;5284525;28;20029;-84
2022/07/27 04:07:26;;;;;;;13.13;7.30;;;;;;;;;;5271251;28;20618;-84
2022/07/27 04:09:58;;;;;;;13.60;7.45;;;;;;;;;;5265279;28;20405;-83
2022/07/27 04:12:29;;;;;;;11.70;6.93;;;;;;;;;;5284459;28;20037;-84
2022/07/27 04:15:00;;;;;;;12.27;7.55;;;;;;;;;;5288000;28;20035;-84
2022/07/27 04:17:31;;;;;;;13.68;7.55;;;;;;;;;;5288434;28;20029;-84
2022/07/27 04:20:03;;;;;;;14.65;7.78;;;;;;;;;;5278256;28;20537;-84
2022/07/27 04:22:34;;;;;;;11.73;8.25;;;;;;;;;;5286896;28;20067;-84
2022/07/27 04:25:05;;;;;;;16.73;8.47;;;;;;;;;;5271464;28;20497;-85
2022/07/27 04:27:37;;;;;;;14.80;8.25;;;;;;;;;;5282363;28;20378;-85
2022/07/27 04:30:08;;;;;;;12.98;7.22;;;;;;;;;;5269448;28;20040;-84
2022/07/27 04:32:39;;;;;;;13.32;7.32;;;;;;;;;;5276755;28;20044;-83
2022/07/27 04:35:11;;;;;;;13.60;7.80;;;;;;;;;;5280553;28;20025;-84
2022/07/27 04:37:42;;;;;;;14.13;7.80;;;;;;;;;;5275093;28;20029;-84
2022/07/27 04:40:13;;;;;;;12.98;8.18;;;;;;;;;;5281518;28;20040;-84
2022/07/27 04:42:44;;;;;;;11.50;8.03;;;;;;;;;;5283995;28;20051;-84
2022/07/27 04:45:15;;;;;;;13.40;7.60;;;;;;;;;;5279769;28;20778;-84
2022/07/27 04:47:47;;;;;;;10.10;7.30;;;;;;;;;;5275825;28;20055;-84
2022/07/27 04:50:18;;;;;;;13.97;7.37;;;;;;;;;;5273278;28;20515;-85
2022/07/27 04:52:49;;;;;;;11.60;7.32;;;;;;;;;;5265087;28;20281;-84
2022/07/27 04:55:20;;;;;;;11.95;8.45;;;;;;;;;;5267616;28;20025;-85
2022/07/27 04:57:52;;;;;;;16.60;8.90;;;;;;;;;;5286636;28;20029;-84
2022/07/27 05:00:23;;;;;;;13.55;7.65;;;;;;;;;;5259998;28;20028;-83
2022/07/27 05:02:54;;;;;;;13.55;7.57;;;;;;;;;;5277897;28;20049;-82
2022/07/27 05:05:25;;;;;;;15.55;8.68;;;;;;;;;;5283537;28;20100;-82
2022/07/27 05:07:56;;;;;;;11.52;7.05;;;;;;;;;;5278081;28;20033;-82
2022/07/27 05:10:28;;;;;;;10.30;6.27;;;;;;;;;;5278990;28;20100;-82
2022/07/27 05:12:59;;;;;;;15.80;7.65;;;;;;;;;;5264567;28;20272;-82
2022/07/27 05:15:30;;;;;;;14.63;8.47;;;;;;;;;;5277757;28;20116;-82
2022/07/27 05:18:01;;;;;;;17.80;8.75;;;;;;;;;;5284017;28;20276;-82
2022/07/27 05:20:33;;;;;;;12.82;8.32;;;;;;;;;;5276612;28;20037;-82
2022/07/27 05:23:04;;;;;;;21.52;11.10;;;;;;;;;;5281573;28;20558;-82
2022/07/27 05:25:35;;;;;;;15.15;9.70;;;;;;;;;;5286542;28;20477;-82
2022/07/27 05:28:06;;;;;;;15.63;9.43;;;;;;;;;;5263225;28;20022;-82
2022/07/27 05:30:37;;;;;;;16.73;9.53;;;;;;;;;;5282496;28;20025;-82
2022/07/27 05:33:09;;;;;;;29.13;14.45;;;;;;;;;;5280872;28;20022;-82
2022/07/27 05:35:40;;;;;;;26.37;15.20;;;;;;;;;;5284525;28;20028;-82
2022/07/27 05:38:11;;;;;;;24.33;15.30;;;;;;;;;;5283081;28;20275;-83
2022/07/27 05:40:44;;;;;;;28.03;14.70;;;;;;;;;;5278513;28;20033;-83
2022/07/27 05:43:15;;;;;;;17.83;9.10;;;;;;;;;;5283503;28;20264;-83
2022/07/27 05:45:46;;;;;;;15.77;11.17;;;;;;;;;;5265212;28;20420;-83
2022/07/27 05:48:17;;;;;;;12.70;7.87;;;;;;;;;;5289205;28;20066;-83
2022/07/27 05:50:48;;;;;;;8.63;7.15;;;;;;;;;;5282819;28;20272;-82
2022/07/27 05:53:19;;;;;;;14.60;6.75;;;;;;;;;;5288915;28;20047;-82
2022/07/27 05:55:51;;;;;;;10.90;6.10;;;;;;;;;;5290149;28;20035;-83
2022/07/27 05:58:22;;;;;;;9.70;5.30;;;;;;;;;;5308995;28;20088;-83
2022/07/27 06:00:55;;;;;;;8.48;4.57;;;;;;;;;;5295019;28;20029;-82
2022/07/27 06:03:28;;;;;;;8.35;4.70;;;;;;;;;;5281337;28;20029;-83
2022/07/27 06:08:53;;;;;;;5.50;3.75;;;;;;;;;;5284111;28;20037;-83
2022/07/27 06:11:24;;;;;;;10.77;4.15;;;;;;;;;;5285930;28;20393;-83
2022/07/27 06:14:00;;;;;;;7.93;3.57;;;;;;;;;;5267989;28;20086;-83
2022/07/27 06:16:31;;;;;;;10.65;3.63;;;;;;;;;;5266128;28;20286;-83
2022/07/27 06:19:02;;;;;;;6.55;3.00;;;;;;;;;;5288463;28;20025;-83
2022/07/27 06:21:33;;;;;;;7.55;3.30;;;;;;;;;;5290883;28;20044;-83
2022/07/27 06:24:05;;;;;;;5.27;2.60;;;;;;;;;;5282363;28;20033;-82
2022/07/27 06:26:39;;;;;;;5.90;2.90;;;;;;;;;;5264610;28;20333;-82
2022/07/27 06:29:10;;;;;;;5.97;2.08;;;;;;;;;;5282996;28;20033;-83
2022/07/27 06:31:41;;;;;;;3.58;2.35;;;;;;;;;;5281338;28;20051;-83
2022/07/27 06:34:12;;;;;;;6.97;2.38;;;;;;;;;;5281386;28;20029;-83
2022/07/27 06:36:44;;;;;;;7.37;2.40;;;;;;;;;;5282222;28;20033;-82
2022/07/27 06:39:15;;;;;;;5.80;1.98;;;;;;;;;;5277654;28;20693;-82
2022/07/27 06:41:46;;;;;;;4.77;1.83;;;;;;;;;;5263466;28;20056;-83
2022/07/27 06:44:17;;;;;;;3.53;1.53;;;;;;;;;;5266854;28;20498;-83
2022/07/27 06:46:49;;;;;;;4.90;2.20;;;;;;;;;;5282206;28;20099;-83
2022/07/27 06:49:20;;;;;;;3.90;1.55;;;;;;;;;;5280006;28;20079;-83
2022/07/27 06:51:52;;;;;;;2.50;1.17;;;;;;;;;;5261519;28;20067;-82
2022/07/27 06:54:23;;;;;;;4.07;1.13;;;;;;;;;;5280744;28;20659;-80
2022/07/27 06:56:54;;;;;;;5.83;1.77;;;;;;;;;;5277930;28;20040;-80
2022/07/27 06:59:25;;;;;;;4.17;1.13;;;;;;;;;;5278622;28;20055;-79
2022/07/27 07:01:56;;;;;;;3.20;0.90;;;;;;;;;;5276748;28;20029;-83
2022/07/27 07:04:27;;;;;;;14.20;2.37;;;;;;;;;;5277887;28;20037;-82
2022/07/27 07:07:00;;;;;;;5.90;1.40;;;;;;;;;;5280809;28;20067;-82
2022/07/27 07:09:43;;;;;;;4.25;0.90;;;;;;;;;;5261678;28;20254;-82
2022/07/27 07:12:17;;;;;;;6.10;1.42;;;;;;;;;;5279718;28;20028;-82
2022/07/27 07:14:48;;;;;;;6.35;1.38;;;;;;;;;;5278368;28;20390;-82
2022/07/27 07:17:19;;;;;;;4.45;0.80;;;;;;;;;;5267353;28;20031;-82
2022/07/27 07:19:50;;;;;;;3.83;1.00;;;;;;;;;;5281233;28;20040;-82
2022/07/27 07:22:21;;;;;;;4.15;1.00;;;;;;;;;;5262431;28;20290;-82
2022/07/27 07:24:53;;;;;;;3.63;1.00;;;;;;;;;;5260737;28;20029;-82
2022/07/27 07:27:24;;;;;;;3.83;0.73;;;;;;;;;;5279511;28;20024;-82
2022/07/27 07:29:55;;;;;;;4.53;1.10;;;;;;;;;;5280323;28;20709;-82
2022/07/27 07:32:26;;;;;;;3.63;1.00;;;;;;;;;;5280440;28;20025;-82
2022/07/27 07:34:58;;;;;;;2.97;1.00;;;;;;;;;;5265357;28;20037;-80
2022/07/27 07:37:29;;;;;;;3.57;0.77;;;;;;;;;;5278677;28;20087;-80
2022/07/27 07:40:00;;;;;;;4.80;1.07;;;;;;;;;;5280658;28;20036;-80
2022/07/27 07:42:44;;;;;;;5.38;1.85;;;;;;;;;;5262835;28;20284;-81
2022/07/27 07:45:15;;;;;;;4.38;1.00;;;;;;;;;;5277407;28;20131;-82
2022/07/27 07:47:46;;;;;;;5.57;1.30;;;;;;;;;;5261282;28;20224;-81
2022/07/27 07:50:17;;;;;;;5.40;1.10;;;;;;;;;;5280875;28;20037;-81
2022/07/27 07:52:52;;;;;;;3.15;1.00;;;;;;;;;;5280277;28;20383;-81
2022/07/27 07:55:24;;;;;;;3.80;1.08;;;;;;;;;;5278692;28;20040;-80
2022/07/27 07:57:56;;;;;;;5.95;1.08;;;;;;;;;;5276889;28;20025;-81
2022/07/27 08:00:27;;;;;;;4.22;1.20;;;;;;;;;;5279908;28;20027;-80
2022/07/27 08:02:58;;;;;;;5.00;1.10;;;;;;;;;;5279103;28;20059;-81
2022/07/27 08:05:31;;;;;;;2.63;1.07;;;;;;;;;;5263521;28;20068;-81
2022/07/27 08:08:02;;;;;;;3.55;1.10;;;;;;;;;;5278047;28;20115;-81
2022/07/27 08:10:33;;;;;;;4.45;1.00;;;;;;;;;;5279375;28;20032;-80
2022/07/27 08:13:05;;;;;;;6.63;1.35;;;;;;;;;;5280286;28;20043;-81
2022/07/27 08:15:36;;;;;;;5.77;1.40;;;;;;;;;;5280749;28;20064;-81
2022/07/27 08:18:08;;;;;;;7.05;1.83;;;;;;;;;;5279183;28;20400;-81
2022/07/27 08:20:39;;;;;;;5.22;1.50;;;;;;;;;;5276813;28;20029;-81
2022/07/27 08:23:12;;;;;;;7.70;1.30;;;;;;;;;;5277880;28;20036;-81
2022/07/27 08:25:43;;;;;;;5.50;1.20;;;;;;;;;;5279803;28;20271;-81
2022/07/27 08:28:14;;;;;;;3.80;1.08;;;;;;;;;;5260271;28;20512;-81
2022/07/27 08:30:45;;;;;;;4.93;1.10;;;;;;;;;;5278460;28;20029;-81
2022/07/27 08:33:17;;;;;;;5.68;1.73;;;;;;;;;;5261180;28;20033;-81
2022/07/27 08:35:48;;;;;;;6.38;1.33;;;;;;;;;;5261329;28;20025;-81
2022/07/27 08:38:19;;;;;;;7.55;1.52;;;;;;;;;;5273320;28;20538;-81
2022/07/27 08:40:51;;;;;;;6.73;1.30;;;;;;;;;;5274664;28;20025;-81
2022/07/27 08:43:24;;;;;;;3.47;0.90;;;;;;;;;;5260580;28;20079;-81
2022/07/27 08:45:56;;;;;;;3.63;0.90;;;;;;;;;;5267054;28;20036;-81
2022/07/27 08:48:29;;;;;;;3.35;0.70;;;;;;;;;;5279192;28;20040;-81
2022/07/27 08:51:00;;;;;;;5.28;0.80;;;;;;;;;;5277051;28;20029;-80
2022/07/27 08:53:32;;;;;;;2.47;0.90;;;;;;;;;;5279073;28;20025;-81
2022/07/27 08:56:03;;;;;;;4.47;1.13;;;;;;;;;;5277423;28;20473;-81
2022/07/27 08:58:34;;;;;;;2.83;1.20;;;;;;;;;;5276100;28;20072;-80
2022/07/27 09:01:05;;;;;;;4.13;1.33;;;;;;;;;;5262258;28;20280;-80
2022/07/27 09:03:37;;;;;;;3.80;1.30;;;;;;;;;;5279024;28;20044;-80
2022/07/27 09:06:08;;;;;;;3.40;2.63;;;;;;;;;;5278972;28;20029;-80
2022/07/27 09:08:40;;;;;;;2.40;0.80;;;;;;;;;;5278511;28;20307;-81
2022/07/27 09:11:14;;;;;;;3.00;0.60;;;;;;;;;;5262725;28;20021;-81
2022/07/27 09:13:46;;;;;;;3.83;1.35;;;;;;;;;;5278375;28;20037;-80
2022/07/27 09:16:27;;;;;;;27.17;18.93;;;;;;;;;;5278706;28;20032;-81
2022/07/27 09:19:00;;;;;;;4.88;0.98;;;;;;;;;;5277453;28;20025;-81
2022/07/27 09:21:32;;;;;;;2.38;0.52;;;;;;;;;;5280527;28;20041;-80
2022/07/27 09:24:12;;;;;;;7.10;1.10;;;;;;;;;;5282230;28;20048;-80
2022/07/27 09:26:43;;;;;;;3.08;1.40;;;;;;;;;;5281931;28;20087;-82
2022/07/27 09:29:15;;;;;;;6.30;1.30;;;;;;;;;;5282235;28;20117;-81
2022/07/27 09:31:48;;;;;;;4.38;1.50;;;;;;;;;;5282839;28;20029;-81
2022/07/27 09:34:27;;;;;;;6.80;1.40;;;;;;;;;;5281457;28;20036;-81
2022/07/27 09:36:58;;;;;;;4.57;1.00;;;;;;;;;;5282315;28;20029;-81
2022/07/27 09:39:30;;;;;;;5.88;1.27;;;;;;;;;;5281640;28;20397;-80
2022/07/27 09:42:01;;;;;;;6.13;1.20;;;;;;;;;;5277749;28;20048;-81
2022/07/27 09:44:35;;;;;;;5.60;1.25;;;;;;;;;;5280096;28;20481;-80
2022/07/27 09:47:25;;;;;;;5.70;1.42;;;;;;;;;;5264956;28;20037;-81
2022/07/27 09:49:57;;;;;;;4.93;1.40;;;;;;;;;;5277005;28;20041;-81
2022/07/27 09:52:29;;;;;;;6.97;1.45;;;;;;;;;;5282635;28;20096;-81
2022/07/27 09:55:04;;;;;;;5.55;1.00;;;;;;;;;;5278802;28;20029;-81
2022/07/27 09:57:52;;;;;;;8.82;1.30;;;;;;;;;;5278681;28;20071;-81
2022/07/27 10:00:24;;;;;;;3.35;1.02;;;;;;;;;;5259251;28;20037;-81
2022/07/27 10:02:55;;;;;;;4.65;0.95;;;;;;;;;;5281768;28;20063;-81
2022/07/27 10:05:27;;;;;;;6.40;1.17;;;;;;;;;;5267096;28;20062;-81
2022/07/27 10:07:58;;;;;;;5.03;1.00;;;;;;;;;;5284828;28;20075;-81
2022/07/27 10:10:29;;;;;;;5.73;1.23;;;;;;;;;;5266674;28;20037;-81
2022/07/27 10:13:01;;;;;;;3.22;0.70;;;;;;;;;;5283829;28;20029;-80
2022/07/27 10:15:32;;;;;;;2.90;1.13;;;;;;;;;;5266724;28;20079;-81
2022/07/27 10:18:09;;;;;;;5.53;1.00;;;;;;;;;;5266498;28;20371;-80
2022/07/27 10:20:41;;;;;;;6.38;1.30;;;;;;;;;;5283737;28;20041;-80
2022/07/27 10:23:26;;;;;;;3.45;1.10;;;;;;;;;;5265436;28;20033;-80
2022/07/27 10:26:19;;;;;;;6.10;1.20;;;;;;;;;;5281984;28;20506;-81
2022/07/27 10:28:53;;;;;;;7.05;1.75;;;;;;;;;;5283052;28;20079;-81
2022/07/27 10:31:26;;;;;;;4.53;0.85;;;;;;;;;;5269893;28;20079;-82
2022/07/27 10:33:59;;;;;;;8.20;1.52;;;;;;;;;;5283942;28;20021;-82
2022/07/27 10:36:30;;;;;;;3.20;0.88;;;;;;;;;;5282923;28;20067;-82
2022/07/27 10:39:04;;;;;;;4.07;1.23;;;;;;;;;;5283573;28;20032;-82
2022/07/27 10:41:39;;;;;;;2.13;0.70;;;;;;;;;;5284050;28;20140;-82
2022/07/27 10:44:13;;;;;;;2.70;0.73;;;;;;;;;;5283607;28;20119;-82
2022/07/27 10:47:05;;;;;;;3.85;0.90;;;;;;;;;;5283660;28;20112;-82
2022/07/27 10:49:36;;;;;;;5.60;1.00;;;;;;;;;;5264848;28;20059;-82
2022/07/27 10:52:28;;;;;;;3.20;1.02;;;;;;;;;;5277368;28;20466;-82
2022/07/27 10:55:04;;;;;;;6.07;1.05;;;;;;;;;;5279910;28;20482;-82
2022/07/27 10:57:35;;;;;;;8.55;1.20;;;;;;;;;;5279817;28;20071;-83
2022/07/27 11:00:08;;;;;;;4.38;1.20;;;;;;;;;;5281085;28;20484;-82
2022/07/27 11:02:41;;;;;;;4.85;0.93;;;;;;;;;;5280050;28;20087;-82
2022/07/27 11:05:12;;;;;;;3.25;1.13;;;;;;;;;;5261211;28;20100;-82
2022/07/27 11:07:43;;;;;;;5.03;1.37;;;;;;;;;;5265073;28;20082;-82
2022/07/27 11:10:14;;;;;;;6.60;1.17;;;;;;;;;;5279477;28;20384;-82
2022/07/27 11:12:46;;;;;;;6.03;1.80;;;;;;;;;;5264650;28;20013;-82
2022/07/27 11:15:23;;;;;;;10.02;1.10;;;;;;;;;;5280065;28;20213;-82
2022/07/27 11:17:54;;;;;;;6.03;1.10;;;;;;;;;;5278781;28;20381;-82
2022/07/27 11:20:25;;;;;;;8.95;1.58;;;;;;;;;;5278991;28;20064;-82
2022/07/27 11:22:58;;;;;;;25.57;2.43;;;;;;;;;;5261933;28;20052;-82
2022/07/27 11:25:29;;;;;;;13.90;1.73;;;;;;;;;;5278594;28;20362;-82
2022/07/27 11:28:05;;;;;;;6.87;1.27;;;;;;;;;;5283219;28;20151;-82
2022/07/27 11:30:37;;;;;;;2.65;1.13;;;;;;;;;;5282967;28;20375;-81
2022/07/27 11:33:09;;;;;;;4.72;1.27;;;;;;;;;;5278353;28;20053;-81
2022/07/27 11:35:48;;;;;;;3.20;1.05;;;;;;;;;;5298269;28;20017;-81
2022/07/27 11:38:20;;;;;;;5.15;1.27;;;;;;;;;;5280747;28;20029;-82
2022/07/27 11:40:52;;;;;;;3.10;0.80;;;;;;;;;;5281111;28;20033;-82
2022/07/27 11:43:31;;;;;;;2.30;0.80;;;;;;;;;;5280168;28;20063;-82
2022/07/27 11:46:16;;;;;;;5.55;1.17;;;;;;;;;;5280360;28;20387;-82
2022/07/27 11:48:48;;;;;;;4.43;1.02;;;;;;;;;;5278292;28;20140;-82
2022/07/27 11:51:19;;;;;;;4.20;0.93;;;;;;;;;;5279594;28;20420;-82
2022/07/27 11:53:54;;;;;;;4.25;1.23;;;;;;;;;;5277851;28;20079;-83
2022/07/27 11:56:26;;;;;;;3.17;1.13;;;;;;;;;;5277262;28;20517;-82
2022/07/27 11:59:10;;;;;;;4.05;0.95;;;;;;;;;;5264508;28;20412;-82
2022/07/27 12:01:49;;;;;;;3.55;0.95;;;;;;;;;;5282114;28;20425;-82
2022/07/27 12:04:46;;;;;;;4.13;0.90;;;;;;;;;;5281215;28;20029;-82
2022/07/27 12:07:19;;;;;;;5.32;0.95;;;;;;;;;;5261963;28;20460;-82
2022/07/27 12:09:53;;;;;;;7.65;1.00;;;;;;;;;;5262099;28;20037;-83
2022/07/27 12:12:25;;;;;;;1.27;0.60;;;;;;;;;;5277165;28;20022;-83
2022/07/27 12:15:00;;;;;;;3.83;0.63;;;;;;;;;;5278439;28;20028;-83
2022/07/27 12:17:32;;;;;;;2.85;1.27;;;;;;;;;;5278370;28;20027;-83
2022/07/27 12:20:10;;;;;;;1.52;0.68;;;;;;;;;;5278292;28;20037;-81
2022/07/27 12:22:43;;;;;;;5.00;0.90;;;;;;;;;;5258841;28;20362;-81
2022/07/27 12:25:17;;;;;;;3.35;0.80;;;;;;;;;;5264519;28;20022;-81
2022/07/27 12:27:55;;;;;;;2.37;0.77;;;;;;;;;;5263128;28;20373;-82
2022/07/27 12:30:36;;;;;;;1.50;0.60;;;;;;;;;;5278543;28;20292;-82
2022/07/27 12:33:23;;;;;;;4.97;0.75;;;;;;;;;;5276189;28;20021;-82
2022/07/27 12:35:55;;;;;;;2.65;0.70;;;;;;;;;;5278646;28;20028;-82
2022/07/27 12:38:40;;;;;;;2.58;0.60;;;;;;;;;;5262385;28;20377;-82
2022/07/27 12:41:30;;;;;;;1.88;0.60;;;;;;;;;;5279376;28;20481;-82
2022/07/27 12:44:08;;;;;;;2.97;0.60;;;;;;;;;;5279742;28;20029;-82
2022/07/27 12:46:52;;;;;;;1.73;0.70;;;;;;;;;;5269792;28;20068;-82
2022/07/27 12:49:24;;;;;;;4.53;1.00;;;;;;;;;;5281970;28;20043;-82
2022/07/27 12:52:04;;;;;;;2.63;0.50;;;;;;;;;;5282437;28;20021;-82
2022/07/27 12:54:36;;;;;;;1.83;0.60;;;;;;;;;;5279303;28;20512;-82
2022/07/27 12:57:07;;;;;;;1.73;0.70;;;;;;;;;;5281917;28;20108;-81
2022/07/27 12:59:41;;;;;;;3.67;0.80;;;;;;;;;;5278475;28;20025;-82
2022/07/27 13:02:12;;;;;;;3.00;1.08;;;;;;;;;;5275470;28;20028;-82
2022/07/27 13:04:43;;;;;;;1.77;0.70;;;;;;;;;;5262619;28;20029;-82
2022/07/27 13:07:16;;;;;;;3.00;0.70;;;;;;;;;;5278685;28;20736;-82
2022/07/27 13:09:47;;;;;;;1.63;0.60;;;;;;;;;;5275654;28;20029;-82
2022/07/27 13:12:18;;;;;;;4.07;0.63;;;;;;;;;;5281397;28;20021;-82
2022/07/27 13:14:50;;;;;;;2.30;0.60;;;;;;;;;;5279331;28;20028;-82
2022/07/27 13:17:21;;;;;;;3.03;0.93;;;;;;;;;;5277281;28;20486;-81
2022/07/27 13:19:52;;;;;;;2.97;0.80;;;;;;;;;;5276274;28;20060;-81
2022/07/27 13:22:24;;;;;;;3.23;0.70;;;;;;;;;;5265844;28;20032;-82
2022/07/27 13:24:55;;;;;;;3.00;1.10;;;;;;;;;;5278170;28;20029;-81
2022/07/27 13:27:27;;;;;;;2.03;0.57;;;;;;;;;;5256588;28;20338;-81
2022/07/27 13:30:01;;;;;;;2.85;0.75;;;;;;;;;;5276191;28;20283;-82
2022/07/27 13:32:32;;;;;;;3.00;0.88;;;;;;;;;;5282823;28;20024;-82
2022/07/27 13:35:04;;;;;;;3.47;0.90;;;;;;;;;;5276865;28;20032;-82
2022/07/27 13:37:35;;;;;;;1.45;0.57;;;;;;;;;;5284369;28;20017;-82
2022/07/27 13:40:07;;;;;;;1.93;0.60;;;;;;;;;;5283938;28;20119;-82
2022/07/27 13:42:39;;;;;;;3.75;0.80;;;;;;;;;;5275087;28;20060;-82
2022/07/27 13:45:10;;;;;;;5.00;0.80;;;;;;;;;;5264881;28;20064;-82
2022/07/27 13:47:42;;;;;;;3.40;0.80;;;;;;;;;;5283258;28;20287;-82
2022/07/27 13:50:15;;;;;;;3.42;0.70;;;;;;;;;;5260866;28;20037;-81
2022/07/27 13:52:46;;;;;;;3.58;0.80;;;;;;;;;;5274530;28;20481;-82
2022/07/27 13:55:18;;;;;;;12.15;1.35;;;;;;;;;;5257278;28;20128;-82
2022/07/27 13:57:49;;;;;;;3.80;0.83;;;;;;;;;;5265046;28;20031;-82
2022/07/27 14:00:20;;;;;;;4.63;0.80;;;;;;;;;;5280259;28;20033;-82
2022/07/27 14:02:52;;;;;;;4.73;1.20;;;;;;;;;;5278187;28;20271;-82
2022/07/27 14:05:23;;;;;;;3.17;1.00;;;;;;;;;;5281453;28;20087;-82
2022/07/27 14:07:54;;;;;;;4.90;0.80;;;;;;;;;;5269267;28;20027;-82
2022/07/27 14:10:31;;;;;;;2.93;0.97;;;;;;;;;;5284551;28;20041;-82
2022/07/27 14:13:03;;;;;;;6.47;1.35;;;;;;;;;;5262889;28;20569;-82
2022/07/27 14:15:35;;;;;;;7.20;1.73;;;;;;;;;;5284681;28;20155;-82
2022/07/27 14:18:06;;;;;;;3.13;1.00;;;;;;;;;;5282693;28;20033;-82
2022/07/27 14:20:38;;;;;;;6.00;1.37;;;;;;;;;;5266820;28;20068;-82
2022/07/27 14:23:09;;;;;;;5.75;0.90;;;;;;;;;;5266286;28;20048;-83
2022/07/27 14:25:41;;;;;;;4.30;1.00;;;;;;;;;;5282444;28;20044;-82
2022/07/27 14:28:12;;;;;;;2.23;0.93;;;;;;;;;;5261091;28;20063;-82
2022/07/27 14:30:43;;;;;;;3.23;1.10;;;;;;;;;;5261043;28;20276;-83
2022/07/27 14:33:15;;;;;;;4.72;1.00;;;;;;;;;;5277500;28;20608;-82
2022/07/27 14:35:46;;;;;;;5.90;1.00;;;;;;;;;;5301350;27;20025;-82
2022/07/27 14:38:20;;;;;;;7.07;1.10;;;;;;;;;;5299341;28;20031;-82
2022/07/27 14:40:52;;;;;;;7.72;1.30;;;;;;;;;;5307870;28;20029;-81
2022/07/27 14:43:23;;;;;;;2.30;0.82;;;;;;;;;;5304753;28;21167;-82
2022/07/27 14:45:55;;;;;;;2.70;0.60;;;;;;;;;;5285059;28;20067;-81
2022/07/27 14:48:26;;;;;;;2.53;0.73;;;;;;;;;;5292031;28;20044;-81
2022/07/27 14:50:58;;;;;;;10.25;0.80;;;;;;;;;;5265723;28;20112;-81
2022/07/27 14:53:29;;;;;;;3.22;0.70;;;;;;;;;;5280789;28;20487;-82
2022/07/27 14:56:01;;;;;;;4.17;1.10;;;;;;;;;;5282117;28;20029;-82
2022/07/27 14:58:32;;;;;;;2.15;0.95;;;;;;;;;;5264349;28;20127;-81
2022/07/27 15:01:03;;;;;;;3.17;0.80;;;;;;;;;;5279986;28;20056;-81
2022/07/27 15:03:34;;;;;;;6.03;0.80;;;;;;;;;;5262572;28;20029;-82
2022/07/27 15:06:06;;;;;;;2.57;0.90;;;;;;;;;;5277509;28;20040;-81
2022/07/27 15:08:37;;;;;;;2.75;0.70;;;;;;;;;;5276545;28;20303;-81
2022/07/27 15:11:08;;;;;;;2.80;1.13;;;;;;;;;;5258894;28;20063;-81
2022/07/27 15:13:39;;;;;;;2.47;0.90;;;;;;;;;;5279921;28;20025;-82
2022/07/27 15:16:11;;;;;;;4.10;0.90;;;;;;;;;;5275556;28;20032;-82
2022/07/27 15:18:42;;;;;;;3.72;0.98;;;;;;;;;;5261258;28;20032;-82
2022/07/27 15:21:13;;;;;;;2.43;0.90;;;;;;;;;;5262911;28;20130;-82